Flight Track Log - Related Links

Times and Time Zones

All times are in EDT time to prevent confusion due to time zone crossing. See the N41WM flight status page for this flight to view local times or setup timezone preferences in your user account.


Time Position Orientation Groundspeed Altitude Reporting Facility
EDT Latitude Longitude Course Direction KTS MPH feet Rate Location/Type
Sat 06:34:53 PM 39.5919 -74.4939 129° Southeast 67 77 7,500  Level New York Center
Sat 06:35:52 PM 39.6069 -74.4811 33° Northeast 67 77 7,500 50 Level New York Center
Sat 06:36:52 PM 39.6242 -74.4633 38° Northeast 74 85 7,600 49 Climbing New York Center
Sat 06:37:54 PM 39.6414 -74.4481 34° Northeast 79 91 7,600  Level New York Center
Sat 06:38:55 PM 39.6586 -74.4300 39° Northeast 79 91 7,600 -50 Level New York Center
Sat 06:39:53 PM 39.6758 -74.4175 29° Northeast 79 91 7,500  Descending New York Center
Sat 06:40:00 PM -19.7551 -160.3267 129° Southeast  Level Estimated
Sat 06:40:54 PM 39.6969 -74.4022 29° Northeast 79 91 7,600  Level New York Center
Sat 06:41:52 PM 39.7161 -74.3897 27° Northeast 79 91 7,500 -51 Descending New York Center
Sat 06:42:52 PM 39.7333 -74.3719 38° Northeast 79 91 7,500  Level New York Center
Sat 06:43:53 PM 39.7506 -74.3564 35° Northeast 79 91 7,500 49 Level New York Center
Sat 06:44:54 PM 39.7697 -74.3439 27° Northeast 79 91 7,600  Climbing New York Center
Sat 06:45:54 PM 39.7911 -74.3317 24° Northeast 79 91 7,500 -50 Descending New York Center
Sat 06:46:53 PM 39.8100 -74.3189 27° Northeast 79 91 7,500  Level New York Center
Sat 06:47:54 PM 39.8314 -74.3092 19° North 74 85 7,500 50 Level New York Center
Sat 06:48:53 PM 39.8503 -74.2967 27° Northeast 74 85 7,600 51 Climbing New York Center
Sat 06:49:52 PM 39.8717 -74.2844 24° Northeast 74 85 7,600 -13 Level New York Center
Sat 06:56:23 PM 40.0000 -74.2167 31° Northeast 80 92 7,500 -13 Descending New York TRACON
Sat 06:57:23 PM 40.0333 -74.2000 21° North 84 97 7,500  Level New York TRACON
Sat 06:58:00 PM 40.0627 -74.2105 31° Northeast  Level FlightAware Approximate
Sat 06:58:23 PM 40.0500 -74.1833 37° Northeast 79 91 7,500  Level New York TRACON
Sat 06:59:00 PM 40.0839 -74.1941 31° Northeast  Level FlightAware Approximate
Sat 06:59:23 PM 40.0667 -74.1667 37° Northeast 77 89 7,500  Level New York TRACON
Sat 07:00:00 PM 40.1051 -74.1776 31° Northeast  Level FlightAware Approximate
Sat 07:00:23 PM 40.0833 -74.1667 360° North 78 90 7,600  Level New York TRACON
Sat 07:01:00 PM 40.1263 -74.1611 31° Northeast  Level FlightAware Approximate
Sat 07:01:23 PM 40.1000 -74.1500 37° Northeast 81 93 7,600  Level New York TRACON
Sat 07:02:23 PM 40.1333 -74.1333 21° North 85 98 7,500 -50 Descending New York TRACON
Sat 07:03:23 PM 40.1500 -74.1333 360° North 87 100 7,500  Level New York TRACON
Sat 07:04:23 PM 40.1667 -74.1167 37° Northeast 83 96 7,500  Level New York TRACON
Sat 07:05:23 PM 40.1833 -74.1000 37° Northeast 79 91 7,500  Level New York TRACON
Sat 07:06:23 PM 40.2000 -74.0833 37° Northeast 78 90 7,500  Level New York TRACON
Sat 07:07:23 PM 40.2333 -74.0667 21° North 79 91 7,500  Level New York TRACON
Sat 07:08:23 PM 40.2500 -74.0500 37° Northeast 81 93 7,500  Level New York TRACON
Sat 07:09:18 PM 40.2667 -74.0500 360° North 78 90 7,500  Level New York TRACON
Sat 07:10:23 PM 40.2833 -74.0333 37° Northeast 81 93 7,500  Level New York TRACON
Sat 07:11:18 PM 40.3000 -74.0167 37° Northeast 81 93 7,500  Level New York TRACON
Sat 07:12:18 PM 40.3167 -74.0000 37° Northeast 80 92 7,500  Level New York TRACON
Sat 07:13:18 PM 40.3333 -73.9833 37° Northeast 82 94 7,500  Level New York TRACON
Sat 07:14:24 PM 40.3500 -73.9667 37° Northeast 78 90 7,500  Level New York TRACON
Sat 07:15:24 PM 40.3833 -73.9500 21° North 81 93 7,500  Level New York TRACON
Sat 07:16:24 PM 40.4000 -73.9500 360° North 85 98 7,500  Level New York TRACON
Sat 07:17:24 PM 40.4167 -73.9333 37° Northeast 85 98 7,500  Level New York TRACON
Sat 07:18:23 PM 40.4333 -73.9167 37° Northeast 81 93 7,500  Level New York TRACON
Sat 07:19:24 PM 40.4667 -73.9000 21° North 80 92 7,500  Level New York TRACON
Sat 07:20:24 PM 40.4833 -73.8833 37° Northeast 82 94 7,500  Level New York TRACON
Sat 07:21:18 PM 40.5000 -73.8667 37° Northeast 85 98 7,500  Level New York TRACON
Sat 07:22:24 PM 40.5167 -73.8500 37° Northeast 89 102 7,500  Level New York TRACON
Sat 07:23:24 PM 40.5333 -73.8333 37° Northeast 87 100 7,500 -50 Level New York TRACON
Sat 07:24:24 PM 40.5667 -73.8167 21° North 84 97 7,400 -33 Descending New York TRACON
Sat 07:26:24 PM 40.6000 -73.7833 37° Northeast 80 92 7,400 17 Level New York TRACON
Sat 07:30:24 PM 40.6500 -73.6833 73° East 85 98 7,500 20 Climbing New York TRACON
Sat 07:31:24 PM 40.6500 -73.6500 90° East 84 97 7,500  Level New York TRACON
Sat 07:32:24 PM 40.6667 -73.6167 57° Northeast 86 99 7,500  Level New York TRACON
Sat 07:33:24 PM 40.6667 -73.6000 90° East 86 99 7,500  Level New York TRACON
Sat 07:34:24 PM 40.6833 -73.5667 57° Northeast 87 100 7,500  Level New York TRACON
Sat 07:35:24 PM 40.6833 -73.5333 90° East 85 98 7,500 50 Level New York TRACON
Sat 07:36:24 PM 40.7000 -73.5000 57° Northeast 87 100 7,600  Climbing New York TRACON
Sat 07:37:24 PM 40.7000 -73.4667 90° East 89 102 7,500 -33 Descending New York TRACON
Sat 07:39:24 PM 40.7000 -73.4167 90° East 85 98 7,500  Level New York TRACON
Sat 07:40:24 PM 40.7167 -73.3833 57° Northeast 82 94 7,500  Level New York TRACON
Sat 07:41:24 PM 40.7167 -73.3500 90° East 83 96 7,500  Level New York TRACON
Sat 07:42:24 PM 40.7167 -73.3167 90° East 84 97 7,500  Level New York TRACON
Sat 07:43:24 PM 40.7167 -73.3000 90° East 82 94 7,500  Level New York TRACON
Sat 07:44:24 PM 40.7333 -73.2667 57° Northeast 82 94 7,500  Level New York TRACON
Sat 07:45:24 PM 40.7333 -73.2333 90° East 85 98 7,500 -53 Level New York TRACON
Sat 07:46:18 PM 40.7333 -73.2000 90° East 82 94 7,400 -263 Descending New York TRACON
Sat 07:47:18 PM 40.7500 -73.1667 57° Northeast 94 108 7,000 -450 Descending New York TRACON
Sat 07:48:18 PM 40.7667 -73.1333 57° Northeast 94 108 6,500 -550 Descending New York TRACON
Sat 07:49:18 PM 40.7667 -73.1167 90° East 87 100 5,900 -619 Descending New York TRACON
Sat 07:50:24 PM 40.7833 -73.0833 57° Northeast 101 116 5,200 -571 Descending New York TRACON
Sat 07:51:24 PM 40.7833 -73.0500 90° East 90 104 4,700 -500 Descending New York TRACON
Sat 07:53:00 PM 40.7934 -72.9996 75° East  Level FlightAware Approximate
Sat 08:00:00 PM 40.8167 -72.8667 78° East  Level FlightAware Approximate
Sat 08:01:00 PM 40.8219 -72.8669 143° Southeast  Level Estimated
Sat 08:02:00 PM 40.8219 -72.8669 178° South  Level Estimated
Sat 08:03:00 PM 40.8219 -72.8669 178° South  Level Estimated
Sat 08:04:00 PM 40.8167 -72.8667 78° East  Level FlightAware Approximate
Sat 08:05:00 PM 40.8219 -72.8669 143° Southeast  Level Estimated
Sat 08:06:00 PM 40.8219 -72.8669 178° South  Level Estimated
Sat 08:07:00 PM 40.8219 -72.8669 178° South  Level Estimated
Sat 08:08:00 PM 40.8167 -72.8667 78° East  Level FlightAware Approximate
Sat 08:09:00 PM 40.8219 -72.8669 143° Southeast  Level Estimated
Sat 08:10:00 PM 40.8219 -72.8669 178° South  Level Estimated
Sat 08:11:00 PM 40.8219 -72.8669 178° South  Level Estimated
Sat 08:12:00 PM 40.8167 -72.8667 78° East  Level FlightAware Approximate

Login

Don't have an account? Register now (free) for customized features, flight alerts, and more!